Edenville, Michigan
Current Conditions -  °F | °C
As of 3:35 PM on Saturday 25 Oct 2014 (Local Time) from KIKW Reporting Station
Clear Clear  
Wind Chill: 20°   Ceiling: Unl
Heat Index: 20°   Visibility: 10mi
Dew Point: -1°   Wind: 20mph
Humidity: 24%   Direction: 250°WSW
Pressure: 29.68"   Gusts: 31mph
Location:  43.8°N, 84.38°W
Report Text: KIKW 251935Z AUTO 25017G27KT 10SM CLR 20/M01 A2968 RMK AO2
Loading
Personal Weather Stations






























Interactive Weather Map
Tropical Storm Tracking
New forecast layout! Learn more

10-Day Weather Forecast

Advertisements
Track Severe Weather on mobile